Time,TemperatureF,DewpointF,PressureIn,WindDirection,WindDirectionDegrees,WindSpeedMPH,WindSpeedGustMPH,Humidity,HourlyPrecipIn,Conditions,Clouds,dailyrainin,SolarRadiationWatts/m^2,SoftwareType,DateUTC
2013-04-19 00:04:00,42.6,38.4,29.51,West,269,9.0,18.0,85,0.00,RA,RA,0.00,0.0,WeatherDisplay:10.37,2013-04-19 05:04:00,
2013-04-19 00:09:00,42.3,38.2,29.50,West,270,13.0,22.0,85,0.00,CLR,CLR,0.00,0.0,WeatherDisplay:10.37,2013-04-19 05:09:00,
2013-04-19 00:14:00,41.9,37.7,29.52,West,264,9.0,18.0,85,0.00,CLR,CLR,0.00,0.0,WeatherDisplay:10.37,2013-04-19 05:14:00,
2013-04-19 00:19:00,41.6,36.8,29.51,West,267,12.0,20.0,83,0.00,CLR,CLR,0.00,0.0,WeatherDisplay:10.37,2013-04-19 05:19:00,
2013-04-19 00:24:00,41.3,35.9,29.51,West,266,13.0,21.0,81,0.00,CLR,CLR,0.00,0.0,WeatherDisplay:10.37,2013-04-19 05:24:00,
2013-04-19 00:29:00,40.9,35.9,29.51,West,273,12.0,21.0,82,0.00,CLR,CLR,0.00,0.0,WeatherDisplay:10.37,2013-04-19 05:29:00,
2013-04-19 00:34:00,40.6,35.6,29.51,West,271,10.0,22.0,82,0.00,CLR,CLR,0.00,0.0,WeatherDisplay:10.37,2013-04-19 05:34:00,
2013-04-19 00:39:00,40.5,35.1,29.51,West,260,10.0,22.0,81,0.00,CLR,CLR,0.00,0.0,WeatherDisplay:10.37,2013-04-19 05:39:00,
2013-04-19 00:44:00,40.4,35.6,29.52,WSW,255,13.0,24.0,83,0.00,CLR,CLR,0.00,0.0,WeatherDisplay:10.37,2013-04-19 05:44:00,
2013-04-19 00:49:00,40.4,35.6,29.51,West,261,10.0,20.0,83,0.00,CLR,CLR,0.00,0.0,WeatherDisplay:10.37,2013-04-19 05:49:00,
2013-04-19 00:59:00,40.3,35.5,29.52,West,260,10.0,23.0,83,0.00,CLR,CLR,0.00,0.0,WeatherDisplay:10.37,2013-04-19 05:59:00,
2013-04-19 01:04:00,40.2,35.4,29.51,West,266,10.0,20.0,83,0.00,CLR,CLR,0.00,0.0,WeatherDisplay:10.37,2013-04-19 06:04:00,
2013-04-19 01:09:00,40.2,36.0,29.51,WSW,255,13.0,24.0,85,0.00,CLR,CLR,0.00,0.0,WeatherDisplay:10.37,2013-04-19 06:09:00,
2013-04-19 01:14:00,39.9,35.5,29.51,WSW,250,15.0,27.0,84,0.00,CLR,CLR,0.00,0.0,WeatherDisplay:10.37,2013-04-19 06:14:00,
2013-04-19 01:19:00,39.8,35.3,29.51,WSW,256,14.0,20.0,84,0.00,CLR,CLR,0.00,0.0,WeatherDisplay:10.37,2013-04-19 06:19:00,
2013-04-19 01:24:00,39.7,35.3,29.51,WSW,257,9.0,23.0,84,0.00,CLR,CLR,0.00,0.0,WeatherDisplay:10.37,2013-04-19 06:24:00,
2013-04-19 01:29:00,39.6,35.2,29.51,WSW,252,12.0,21.0,84,0.00,CLR,CLR,0.00,0.0,WeatherDisplay:10.37,2013-04-19 06:29:00,
2013-04-19 01:34:00,39.6,35.2,29.50,WSW,253,13.0,21.0,84,0.00,CLR,CLR,0.00,0.0,WeatherDisplay:10.37,2013-04-19 06:34:00,
2013-04-19 01:39:00,39.5,35.1,29.50,West,265,13.0,23.0,84,0.00,CLR,CLR,0.00,0.0,WeatherDisplay:10.37,2013-04-19 06:39:00,
2013-04-19 01:44:00,39.5,35.1,29.50,West,265,14.0,23.0,84,0.00,CLR,CLR,0.00,0.0,WeatherDisplay:10.37,2013-04-19 06:44:00,
2013-04-19 01:49:00,39.4,34.4,29.50,West,262,10.0,24.0,82,0.00,CLR,CLR,0.00,0.0,WeatherDisplay:10.37,2013-04-19 06:49:00,
2013-04-19 01:54:00,39.3,34.9,29.50,West,262,10.0,18.0,84,0.00,CLR,CLR,0.00,0.0,WeatherDisplay:10.37,2013-04-19 06:54:00,
2013-04-19 01:59:00,39.4,35.0,29.51,WSW,257,9.0,18.0,84,0.00,CLR,CLR,0.00,0.0,WeatherDisplay:10.37,2013-04-19 06:59:00,
2013-04-19 02:04:00,39.4,34.7,29.51,West,266,10.0,23.0,83,0.00,CLR,CLR,0.00,0.0,WeatherDisplay:10.37,2013-04-19 07:04:00,
2013-04-19 02:09:00,39.4,34.4,29.51,West,260,12.0,20.0,82,0.00,CLR,CLR,0.00,0.0,WeatherDisplay:10.37,2013-04-19 07:09:00,
2013-04-19 02:14:00,39.4,33.7,29.50,West,262,15.0,28.0,80,0.00,CLR,CLR,0.00,0.0,WeatherDisplay:10.37,2013-04-19 07:14:00,
2013-04-19 02:19:00,39.4,33.4,29.50,West,267,14.0,25.0,79,0.00,CLR,CLR,0.00,0.0,WeatherDisplay:10.37,2013-04-19 07:19:00,
2013-04-19 02:24:00,39.3,33.3,29.50,West,267,13.0,22.0,79,0.00,CLR,CLR,0.00,0.0,WeatherDisplay:10.37,2013-04-19 07:24:00,
2013-04-19 02:29:00,39.3,33.6,29.50,West,272,13.0,24.0,80,0.00,CLR,CLR,0.00,0.0,WeatherDisplay:10.37,2013-04-19 07:29:00,
2013-04-19 02:34:00,39.3,33.3,29.51,West,271,13.0,23.0,79,0.00,CLR,CLR,0.00,0.0,WeatherDisplay:10.37,2013-04-19 07:34:00,
2013-04-19 02:39:00,39.3,33.6,29.51,West,270,10.0,18.0,80,0.00,CLR,CLR,0.00,0.0,WeatherDisplay:10.37,2013-04-19 07:39:00,
2013-04-19 02:44:00,39.3,33.3,29.51,West,266,9.0,17.0,79,0.00,CLR,CLR,0.00,0.0,WeatherDisplay:10.37,2013-04-19 07:44:00,
2013-04-19 02:49:00,39.3,33.9,29.51,West,267,9.0,17.0,81,0.00,CLR,CLR,0.00,0.0,WeatherDisplay:10.37,2013-04-19 07:49:00,
2013-04-19 02:54:00,39.2,34.2,29.51,West,270,8.0,16.0,82,0.00,CLR,CLR,0.00,0.0,WeatherDisplay:10.37,2013-04-19 07:54:00,
2013-04-19 02:59:00,39.2,34.2,29.51,West,259,10.0,18.0,82,0.00,CLR,CLR,0.00,0.0,WeatherDisplay:10.37,2013-04-19 07:59:00,
2013-04-19 03:04:00,39.1,34.7,29.50,WSW,251,9.0,17.0,84,0.00,CLR,CLR,0.00,0.0,WeatherDisplay:10.37,2013-04-19 08:04:00,
2013-04-19 03:09:00,39.1,34.0,29.50,West,261,9.0,20.0,82,0.00,CLR,CLR,0.00,0.0,WeatherDisplay:10.37,2013-04-19 08:09:00,
2013-04-19 03:14:00,39.0,34.3,29.50,West,264,10.0,15.0,83,0.00,CLR,CLR,0.00,0.0,WeatherDisplay:10.37,2013-04-19 08:14:00,
2013-04-19 03:19:00,39.0,34.0,29.49,West,264,12.0,17.0,82,0.00,CLR,CLR,0.00,0.0,WeatherDisplay:10.37,2013-04-19 08:19:00,
2013-04-19 03:24:00,39.1,34.1,29.49,West,259,12.0,20.0,82,0.00,CLR,CLR,0.00,0.0,WeatherDisplay:10.37,2013-04-19 08:24:00,
2013-04-19 03:29:00,39.1,33.5,29.49,West,263,12.0,18.0,80,0.00,CLR,CLR,0.00,0.0,WeatherDisplay:10.37,2013-04-19 08:29:00,
2013-04-19 03:34:00,39.0,34.3,29.49,West,268,9.0,15.0,83,0.00,CLR,CLR,0.00,0.0,WeatherDisplay:10.37,2013-04-19 08:34:00,
2013-04-19 03:39:00,38.9,33.3,29.49,WSW,255,17.0,22.0,80,0.00,CLR,CLR,0.00,0.0,WeatherDisplay:10.37,2013-04-19 08:39:00,
2013-04-19 03:44:00,38.9,33.6,29.49,WSW,251,14.0,24.0,81,0.00,CLR,CLR,0.00,0.0,WeatherDisplay:10.37,2013-04-19 08:44:00,
2013-04-19 03:49:00,38.9,32.9,29.49,WSW,252,12.0,21.0,79,0.00,CLR,CLR,0.00,0.0,WeatherDisplay:10.37,2013-04-19 08:49:00,
2013-04-19 03:54:00,38.8,32.8,29.50,WSW,258,12.0,21.0,79,0.00,CLR,CLR,0.00,0.0,WeatherDisplay:10.37,2013-04-19 08:54:00,
2013-04-19 03:59:00,38.8,33.2,29.50,West,264,12.0,20.0,80,0.00,CLR,CLR,0.00,0.0,WeatherDisplay:10.37,2013-04-19 08:59:00,
2013-04-19 04:04:00,38.8,33.2,29.50,West,262,12.0,20.0,80,0.00,CLR,CLR,0.00,0.0,WeatherDisplay:10.37,2013-04-19 09:04:00,
2013-04-19 04:09:00,38.8,32.2,29.50,West,263,12.0,26.0,77,0.00,CLR,CLR,0.00,0.0,WeatherDisplay:10.37,2013-04-19 09:09:00,
2013-04-19 04:14:00,38.8,32.8,29.50,West,262,12.0,23.0,79,0.00,CLR,CLR,0.00,0.0,WeatherDisplay:10.37,2013-04-19 09:14:00,
2013-04-19 04:19:00,38.7,33.1,29.50,WSW,257,13.0,20.0,80,0.00,CLR,CLR,0.00,0.0,WeatherDisplay:10.37,2013-04-19 09:19:00,
2013-04-19 04:24:00,38.7,33.4,29.51,WSW,254,7.0,20.0,81,0.00,CLR,CLR,0.00,0.0,WeatherDisplay:10.37,2013-04-19 09:24:00,
2013-04-19 04:29:00,38.6,33.3,29.50,West,259,9.0,15.0,81,0.00,CLR,CLR,0.00,0.0,WeatherDisplay:10.37,2013-04-19 09:29:00,
2013-04-19 04:34:00,38.6,33.6,29.50,West,267,7.0,28.0,82,0.00,CLR,CLR,0.00,0.0,WeatherDisplay:10.37,2013-04-19 09:34:00,
2013-04-19 04:39:00,38.6,33.0,29.51,West,273,10.0,28.0,80,0.00,CLR,CLR,0.00,0.0,WeatherDisplay:10.37,2013-04-19 09:39:00,
2013-04-19 04:44:00,38.4,33.1,29.51,West,268,9.0,20.0,81,0.00,CLR,CLR,0.00,0.0,WeatherDisplay:10.37,2013-04-19 09:44:00,
2013-04-19 04:49:00,38.2,32.9,29.50,West,269,7.0,17.0,81,0.00,CLR,CLR,0.00,0.0,WeatherDisplay:10.37,2013-04-19 09:49:00,
2013-04-19 04:54:00,38.3,33.0,29.51,West,269,9.0,20.0,81,0.00,CLR,CLR,0.00,0.0,WeatherDisplay:10.37,2013-04-19 09:54:00,
2013-04-19 04:59:00,38.3,32.7,29.50,West,265,7.0,15.0,80,0.00,CLR,CLR,0.00,0.0,WeatherDisplay:10.37,2013-04-19 09:59:00,
2013-04-19 05:04:00,38.3,33.6,29.51,West,263,7.0,15.0,83,0.00,CLR,CLR,0.00,0.0,WeatherDisplay:10.37,2013-04-19 10:04:00,
2013-04-19 05:09:00,38.3,32.4,29.51,West,265,12.0,20.0,79,0.00,CLR,CLR,0.00,0.0,WeatherDisplay:10.37,2013-04-19 10:09:00,
2013-04-19 05:14:00,38.3,32.4,29.51,West,262,9.0,18.0,79,0.00,CLR,CLR,0.00,0.0,WeatherDisplay:10.37,2013-04-19 10:14:00,
2013-04-19 05:19:00,38.3,33.0,29.51,WSW,256,8.0,15.0,81,0.00,CLR,CLR,0.00,0.0,WeatherDisplay:10.37,2013-04-19 10:19:00,
2013-04-19 05:24:00,38.2,33.2,29.51,WSW,253,9.0,20.0,82,0.00,CLR,CLR,0.00,0.0,WeatherDisplay:10.37,2013-04-19 10:24:00,
2013-04-19 05:29:00,38.1,33.1,29.51,WSW,255,13.0,21.0,82,0.00,CLR,CLR,0.00,0.0,WeatherDisplay:10.37,2013-04-19 10:29:00,
2013-04-19 05:34:00,38.2,33.2,29.51,WSW,257,10.0,21.0,82,0.00,CLR,CLR,0.00,0.0,WeatherDisplay:10.37,2013-04-19 10:34:00,
2013-04-19 05:39:00,38.2,33.2,29.51,West,259,10.0,24.0,82,0.00,CLR,CLR,0.00,0.0,WeatherDisplay:10.37,2013-04-19 10:39:00,
2013-04-19 05:44:00,38.2,32.9,29.51,West,259,13.0,23.0,81,0.00,CLR,CLR,0.00,0.0,WeatherDisplay:10.37,2013-04-19 10:44:00,
2013-04-19 05:49:00,38.1,32.5,29.51,WSW,251,14.0,22.0,80,0.00,CLR,CLR,0.00,0.0,WeatherDisplay:10.37,2013-04-19 10:49:00,
2013-04-19 05:59:00,38.1,33.1,29.52,WSW,253,17.0,23.0,82,0.00,CLR,CLR,0.00,0.0,WeatherDisplay:10.37,2013-04-19 10:59:00,
2013-04-19 06:04:00,38.1,33.1,29.52,WSW,254,14.0,21.0,82,0.00,CLR,CLR,0.00,0.0,WeatherDisplay:10.37,2013-04-19 11:04:00,
2013-04-19 06:09:00,38.1,33.4,29.52,WSW,251,16.0,24.0,83,0.00,CLR,CLR,0.00,0.0,WeatherDisplay:10.37,2013-04-19 11:09:00,
2013-04-19 06:14:00,38.1,33.1,29.52,WSW,252,18.0,30.0,82,0.00,CLR,CLR,0.00,0.0,WeatherDisplay:10.37,2013-04-19 11:14:00,
2013-04-19 06:19:00,37.9,33.2,29.52,WSW,251,17.0,27.0,83,0.00,CLR,CLR,0.00,0.0,WeatherDisplay:10.37,2013-04-19 11:19:00,
2013-04-19 06:24:00,37.9,32.6,29.52,WSW,250,14.0,28.0,81,0.00,CLR,CLR,0.00,0.0,WeatherDisplay:10.37,2013-04-19 11:24:00,
2013-04-19 06:29:00,37.9,32.6,29.52,WSW,258,14.0,22.0,81,0.00,CLR,CLR,0.00,0.0,WeatherDisplay:10.37,2013-04-19 11:29:00,
2013-04-19 06:34:00,37.8,32.2,29.52,WSW,257,17.0,28.0,80,0.00,CLR,CLR,0.00,0.0,WeatherDisplay:10.37,2013-04-19 11:34:00,
2013-04-19 06:39:00,37.6,32.6,29.53,WSW,253,16.0,24.0,82,0.00,CLR,CLR,0.00,0.0,WeatherDisplay:10.37,2013-04-19 11:39:00,
2013-04-19 06:44:00,37.6,32.3,29.53,WSW,252,15.0,25.0,81,0.00,CLR,CLR,0.00,0.0,WeatherDisplay:10.37,2013-04-19 11:44:00,
2013-04-19 06:49:00,37.7,32.0,29.53,WSW,249,12.0,22.0,80,0.00,CLR,CLR,0.00,0.0,WeatherDisplay:10.37,2013-04-19 11:49:00,
2013-04-19 06:54:00,37.5,32.5,29.53,WSW,253,16.0,26.0,82,0.00,CLR,CLR,0.00,0.0,WeatherDisplay:10.37,2013-04-19 11:54:00,
2013-04-19 06:59:00,37.5,32.2,29.53,WSW,255,14.0,26.0,81,0.00,CLR,CLR,0.00,0.0,WeatherDisplay:10.37,2013-04-19 11:59:00,
2013-04-19 07:04:00,37.5,31.9,29.53,WSW,254,16.0,24.0,80,0.00,CLR,CLR,0.00,0.0,WeatherDisplay:10.37,2013-04-19 12:04:00,
2013-04-19 07:09:00,37.4,31.8,29.53,WSW,251,14.0,23.0,80,0.00,CLR,CLR,0.00,0.0,WeatherDisplay:10.37,2013-04-19 12:09:00,
2013-04-19 07:14:00,37.4,32.1,29.53,WSW,248,16.0,22.0,81,0.00,CLR,CLR,0.00,0.0,WeatherDisplay:10.37,2013-04-19 12:14:00,
2013-04-19 07:19:00,37.4,31.5,29.53,WSW,252,18.0,30.0,79,0.00,CLR,CLR,0.00,0.0,WeatherDisplay:10.37,2013-04-19 12:19:00,
2013-04-19 07:24:00,37.4,32.1,29.54,WSW,252,15.0,24.0,81,0.00,CLR,CLR,0.00,0.0,WeatherDisplay:10.37,2013-04-19 12:24:00,
2013-04-19 07:29:00,37.3,31.7,29.54,WSW,250,17.0,25.0,80,0.00,CLR,CLR,0.00,0.0,WeatherDisplay:10.37,2013-04-19 12:29:00,
2013-04-19 07:34:00,37.3,31.7,29.54,WSW,251,17.0,24.0,80,0.00,CLR,CLR,0.00,0.0,WeatherDisplay:10.37,2013-04-19 12:34:00,
2013-04-19 07:39:00,37.3,32.0,29.54,WSW,251,14.0,22.0,81,0.00,CLR,CLR,0.00,0.0,WeatherDisplay:10.37,2013-04-19 12:39:00,
2013-04-19 07:44:00,37.3,32.0,29.54,WSW,250,13.0,23.0,81,0.00,CLR,CLR,0.00,0.0,WeatherDisplay:10.37,2013-04-19 12:44:00,
2013-04-19 07:49:00,37.3,32.0,29.54,WSW,252,16.0,21.0,81,0.00,CLR,CLR,0.00,0.0,WeatherDisplay:10.37,2013-04-19 12:49:00,
2013-04-19 07:54:00,37.3,32.3,29.54,WSW,252,18.0,26.0,82,0.00,CLR,CLR,0.00,0.0,WeatherDisplay:10.37,2013-04-19 12:54:00,
2013-04-19 07:59:00,37.4,32.4,29.54,WSW,256,14.0,22.0,82,0.00,CLR,CLR,0.00,0.0,WeatherDisplay:10.37,2013-04-19 12:59:00,
2013-04-19 08:04:00,37.4,32.4,29.55,WSW,253,17.0,23.0,82,0.00,CLR,CLR,0.00,0.0,WeatherDisplay:10.37,2013-04-19 13:04:00,
2013-04-19 08:09:00,37.4,32.4,29.55,WSW,250,15.0,23.0,82,0.00,CLR,CLR,0.00,0.0,WeatherDisplay:10.37,2013-04-19 13:09:00,
2013-04-19 08:14:00,37.4,32.4,29.55,WSW,249,17.0,24.0,82,0.00,CLR,CLR,0.00,0.0,WeatherDisplay:10.37,2013-04-19 13:14:00,
2013-04-19 08:19:00,37.4,32.7,29.55,WSW,250,13.0,21.0,83,0.00,CLR,CLR,0.00,0.0,WeatherDisplay:10.37,2013-04-19 13:19:00,
2013-04-19 08:24:00,37.3,32.9,29.55,WSW,253,14.0,25.0,84,0.00,CLR,CLR,0.00,0.0,WeatherDisplay:10.37,2013-04-19 13:24:00,
2013-04-19 08:29:00,37.3,32.9,29.55,WSW,255,12.0,24.0,84,0.00,CLR,CLR,0.00,0.0,WeatherDisplay:10.37,2013-04-19 13:29:00,
2013-04-19 08:34:00,37.0,32.9,29.56,WSW,253,21.0,26.0,85,0.00,CLR,CLR,0.00,0.0,WeatherDisplay:10.37,2013-04-19 13:34:00,
2013-04-19 08:39:00,36.7,33.2,29.56,WSW,250,17.0,23.0,87,0.00,CLR,CLR,0.00,0.0,WeatherDisplay:10.37,2013-04-19 13:39:00,
2013-04-19 08:44:00,36.7,33.8,29.56,WSW,250,15.0,25.0,89,0.00,CLR,CLR,0.00,0.0,WeatherDisplay:10.37,2013-04-19 13:44:00,
2013-04-19 08:49:00,36.7,33.5,29.56,WSW,250,15.0,23.0,88,0.00,CLR,CLR,0.00,0.0,WeatherDisplay:10.37,2013-04-19 13:49:00,
2013-04-19 08:54:00,37.1,33.3,29.56,WSW,255,13.0,28.0,86,0.00,CLR,CLR,0.00,0.0,WeatherDisplay:10.37,2013-04-19 13:54:00,
2013-04-19 08:59:00,37.5,33.7,29.56,WSW,258,16.0,22.0,86,0.00,CLR,CLR,0.00,0.0,WeatherDisplay:10.37,2013-04-19 13:59:00,
2013-04-19 09:04:00,37.4,33.3,29.57,West,259,15.0,23.0,85,0.00,CLR,CLR,0.00,0.0,WeatherDisplay:10.37,2013-04-19 14:04:00,
2013-04-19 09:09:00,37.5,33.4,29.57,West,259,13.0,23.0,85,0.00,CLR,CLR,0.00,0.0,WeatherDisplay:10.37,2013-04-19 14:09:00,
2013-04-19 09:19:00,37.0,33.2,29.57,WSW,252,18.0,28.0,86,0.00,CLR,CLR,0.00,0.0,WeatherDisplay:10.37,2013-04-19 14:19:00,
2013-04-19 09:24:00,36.6,33.4,29.57,WSW,251,17.0,28.0,88,0.00,CLR,CLR,0.00,0.0,WeatherDisplay:10.37,2013-04-19 14:24:00,
2013-04-19 09:29:00,36.7,33.4,29.57,WSW,256,18.0,28.0,88,0.00,CLR,CLR,0.00,0.0,WeatherDisplay:10.37,2013-04-19 14:29:00,
2013-04-19 09:34:00,36.7,33.8,29.58,WSW,254,12.0,21.0,89,0.00,CLR,CLR,0.00,0.0,WeatherDisplay:10.37,2013-04-19 14:34:00,
2013-04-19 09:39:00,37.0,33.2,29.58,WSW,249,18.0,27.0,86,0.00,CLR,CLR,0.00,0.0,WeatherDisplay:10.37,2013-04-19 14:39:00,
2013-04-19 09:44:00,37.2,33.4,29.58,WSW,249,17.0,29.0,86,0.00,CLR,CLR,0.00,0.0,WeatherDisplay:10.37,2013-04-19 14:44:00,
2013-04-19 09:49:00,37.8,34.2,29.58,WSW,253,15.0,24.0,87,0.00,CLR,CLR,0.00,0.0,WeatherDisplay:10.37,2013-04-19 14:49:00,
2013-04-19 09:59:00,38.3,33.9,29.58,WSW,247,16.0,28.0,84,0.00,CLR,CLR,0.00,0.0,WeatherDisplay:10.37,2013-04-19 14:59:00,
2013-04-19 10:04:00,38.5,34.1,29.58,WSW,246,16.0,29.0,84,0.00,CLR,CLR,0.00,0.0,WeatherDisplay:10.37,2013-04-19 15:04:00,
2013-04-19 10:09:00,38.8,33.7,29.58,WSW,247,18.0,24.0,82,0.00,CLR,CLR,0.00,0.0,WeatherDisplay:10.37,2013-04-19 15:09:00,
2013-04-19 10:14:00,38.9,33.9,29.58,WSW,247,18.0,26.0,82,0.00,CLR,CLR,0.00,0.0,WeatherDisplay:10.37,2013-04-19 15:14:00,
2013-04-19 10:19:00,38.6,33.6,29.58,WSW,246,16.0,28.0,82,0.00,CLR,CLR,0.00,0.0,WeatherDisplay:10.37,2013-04-19 15:19:00,
2013-04-19 10:24:00,38.7,34.0,29.59,WSW,250,16.0,23.0,83,0.00,CLR,CLR,0.00,0.0,WeatherDisplay:10.37,2013-04-19 15:24:00,
2013-04-19 10:29:00,38.6,33.3,29.58,WSW,250,23.0,30.0,81,0.00,CLR,CLR,0.00,0.0,WeatherDisplay:10.37,2013-04-19 15:29:00,
2013-04-19 10:34:00,38.7,33.1,29.58,WSW,247,23.0,30.0,80,0.00,CLR,CLR,0.00,0.0,WeatherDisplay:10.37,2013-04-19 15:34:00,
2013-04-19 10:39:00,38.4,32.8,29.58,WSW,246,20.0,28.0,80,0.00,CLR,CLR,0.00,0.0,WeatherDisplay:10.37,2013-04-19 15:39:00,
2013-04-19 10:49:00,38.1,32.8,29.59,WSW,248,20.0,28.0,81,0.00,CLR,CLR,0.00,0.0,WeatherDisplay:10.37,2013-04-19 15:49:00,
2013-04-19 10:54:00,38.3,33.3,29.59,WSW,245,20.0,26.0,82,0.00,CLR,CLR,0.00,0.0,WeatherDisplay:10.37,2013-04-19 15:54:00,
2013-04-19 10:59:00,38.5,33.1,29.59,WSW,249,20.0,33.0,81,0.00,CLR,CLR,0.00,0.0,WeatherDisplay:10.37,2013-04-19 15:59:00,
2013-04-19 11:09:00,38.2,32.6,29.59,WSW,250,16.0,29.0,80,0.00,CLR,CLR,0.00,0.0,WeatherDisplay:10.37,2013-04-19 16:09:00,
2013-04-19 11:19:00,38.4,32.5,29.59,WSW,256,16.0,26.0,79,0.00,CLR,CLR,0.00,0.0,WeatherDisplay:10.37,2013-04-19 16:19:00,
2013-04-19 11:24:00,38.4,32.8,29.60,WSW,256,20.0,28.0,80,0.00,CLR,CLR,0.00,0.0,WeatherDisplay:10.37,2013-04-19 16:24:00,
2013-04-19 11:29:00,38.4,32.8,29.60,WSW,255,20.0,28.0,80,0.00,CLR,CLR,0.00,0.0,WeatherDisplay:10.37,2013-04-19 16:29:00,
2013-04-19 11:34:00,38.2,32.6,29.60,WSW,253,16.0,32.0,80,0.00,CLR,CLR,0.00,0.0,WeatherDisplay:10.37,2013-04-19 16:34:00,
2013-04-19 11:39:00,38.7,33.0,29.60,WSW,252,16.0,26.0,80,0.00,CLR,CLR,0.00,0.0,WeatherDisplay:10.37,2013-04-19 16:39:00,
2013-04-19 11:44:00,38.9,32.9,29.60,WSW,257,16.0,31.0,79,0.00,CLR,CLR,0.00,0.0,WeatherDisplay:10.37,2013-04-19 16:44:00,
2013-04-19 11:49:00,38.8,32.5,29.60,WSW,253,24.0,29.0,78,0.00,CLR,CLR,0.00,0.0,WeatherDisplay:10.37,2013-04-19 16:49:00,
2013-04-19 11:54:00,38.5,32.3,29.60,WSW,252,25.0,35.0,78,0.00,CLR,CLR,0.00,0.0,WeatherDisplay:10.37,2013-04-19 16:54:00,
2013-04-19 11:59:00,38.5,32.3,29.60,WSW,252,18.0,30.0,78,0.00,CLR,CLR,0.00,0.0,WeatherDisplay:10.37,2013-04-19 16:59:00,
2013-04-19 12:04:00,38.6,33.3,29.60,WSW,250,17.0,28.0,81,0.00,CLR,CLR,0.00,0.0,WeatherDisplay:10.37,2013-04-19 17:04:00,
2013-04-19 12:09:00,38.3,32.4,29.60,WSW,251,21.0,29.0,79,0.00,CLR,CLR,0.00,0.0,WeatherDisplay:10.37,2013-04-19 17:09:00,
2013-04-19 12:14:00,38.4,32.4,29.60,WSW,253,14.0,26.0,79,0.00,CLR,CLR,0.00,0.0,WeatherDisplay:10.37,2013-04-19 17:14:00,
2013-04-19 12:19:00,38.6,33.0,29.61,West,261,16.0,25.0,80,0.00,CLR,CLR,0.00,0.0,WeatherDisplay:10.37,2013-04-19 17:19:00,
2013-04-19 12:24:00,38.6,32.6,29.61,WSW,258,12.0,27.0,79,0.00,CLR,CLR,0.00,0.0,WeatherDisplay:10.37,2013-04-19 17:24:00,
2013-04-19 12:29:00,38.4,32.8,29.62,WSW,253,16.0,27.0,80,0.00,CLR,CLR,0.00,0.0,WeatherDisplay:10.37,2013-04-19 17:29:00,
2013-04-19 12:34:00,38.2,32.9,29.62,WSW,250,16.0,26.0,81,0.00,CLR,CLR,0.00,0.0,WeatherDisplay:10.37,2013-04-19 17:34:00,
2013-04-19 12:39:00,37.9,32.9,29.62,WSW,248,17.0,25.0,82,0.00,CLR,CLR,0.00,0.0,WeatherDisplay:10.37,2013-04-19 17:39:00,
2013-04-19 12:44:00,37.8,32.5,29.62,WSW,248,22.0,32.0,81,0.00,CLR,CLR,0.00,0.0,WeatherDisplay:10.37,2013-04-19 17:44:00,
2013-04-19 12:49:00,37.6,32.6,29.62,WSW,248,16.0,26.0,82,0.00,CLR,CLR,0.00,0.0,WeatherDisplay:10.37,2013-04-19 17:49:00,
2013-04-19 12:59:00,37.5,32.5,29.62,West,263,16.0,26.0,82,0.00,CLR,CLR,0.00,0.0,WeatherDisplay:10.37,2013-04-19 17:59:00,
2013-04-19 13:04:00,37.4,33.0,29.63,West,259,14.0,29.0,84,0.00,CLR,CLR,0.00,0.0,WeatherDisplay:10.37,2013-04-19 18:04:00,
2013-04-19 13:09:00,37.5,33.1,29.63,West,264,13.0,21.0,84,0.00,CLR,CLR,0.00,0.0,WeatherDisplay:10.37,2013-04-19 18:09:00,
2013-04-19 13:14:00,38.0,32.7,29.64,West,265,14.0,28.0,81,0.00,CLR,CLR,0.00,0.0,WeatherDisplay:10.37,2013-04-19 18:14:00,
2013-04-19 13:24:00,38.0,32.7,29.64,West,261,14.0,30.0,81,0.00,CLR,CLR,0.00,0.0,WeatherDisplay:10.37,2013-04-19 18:24:00,
2013-04-19 13:29:00,37.9,32.6,29.64,WSW,255,15.0,25.0,81,0.00,CLR,CLR,0.00,0.0,WeatherDisplay:10.37,2013-04-19 18:29:00,
2013-04-19 13:34:00,38.0,32.4,29.64,WSW,253,17.0,28.0,80,0.00,CLR,CLR,0.00,0.0,WeatherDisplay:10.37,2013-04-19 18:34:00,
2013-04-19 13:39:00,38.5,33.2,29.65,WSW,252,15.0,26.0,81,0.00,CLR,CLR,0.00,0.0,WeatherDisplay:10.37,2013-04-19 18:39:00,
2013-04-19 13:44:00,38.8,33.5,29.65,WSW,256,13.0,24.0,81,0.00,CLR,CLR,0.00,0.0,WeatherDisplay:10.37,2013-04-19 18:44:00,
2013-04-19 13:49:00,38.6,33.0,29.65,West,261,12.0,26.0,80,0.00,CLR,CLR,0.00,0.0,WeatherDisplay:10.37,2013-04-19 18:49:00,
2013-04-19 13:54:00,38.7,32.4,29.66,WSW,256,13.0,22.0,78,0.00,CLR,CLR,0.00,0.0,WeatherDisplay:10.37,2013-04-19 18:54:00,
2013-04-19 13:59:00,38.4,32.1,29.66,WSW,258,13.0,22.0,78,0.00,CLR,CLR,0.00,0.0,WeatherDisplay:10.37,2013-04-19 18:59:00,
2013-04-19 14:04:00,38.1,32.5,29.66,WSW,257,9.0,20.0,80,0.00,CLR,CLR,0.00,0.0,WeatherDisplay:10.37,2013-04-19 19:04:00,
2013-04-19 14:09:00,37.7,32.4,29.66,WSW,254,13.0,24.0,81,0.00,CLR,CLR,0.00,0.0,WeatherDisplay:10.37,2013-04-19 19:09:00,
2013-04-19 14:14:00,37.5,32.8,29.67,WSW,255,8.0,17.0,83,0.00,CLR,CLR,0.00,0.0,WeatherDisplay:10.37,2013-04-19 19:14:00,
2013-04-19 14:19:00,37.5,32.8,29.67,West,261,15.0,22.0,83,0.00,CLR,CLR,0.00,0.0,WeatherDisplay:10.37,2013-04-19 19:19:00,
2013-04-19 14:24:00,37.7,33.0,29.67,WSW,258,10.0,24.0,83,0.00,CLR,CLR,0.00,0.0,WeatherDisplay:10.37,2013-04-19 19:24:00,
2013-04-19 14:29:00,38.2,32.5,29.67,WSW,257,16.0,24.0,80,0.00,CLR,CLR,0.00,0.0,WeatherDisplay:10.37,2013-04-19 19:29:00,
2013-04-19 14:34:00,38.7,33.4,29.67,West,259,13.0,22.0,81,0.00,CLR,CLR,0.00,0.0,WeatherDisplay:10.37,2013-04-19 19:34:00,
2013-04-19 14:39:00,38.4,32.8,29.67,West,261,12.0,25.0,80,0.00,CLR,CLR,0.00,0.0,WeatherDisplay:10.37,2013-04-19 19:39:00,
2013-04-19 14:44:00,38.9,33.5,29.67,West,260,12.0,22.0,81,0.00,CLR,CLR,0.00,0.0,WeatherDisplay:10.37,2013-04-19 19:44:00,
2013-04-19 14:49:00,38.8,32.8,29.67,West,263,12.0,22.0,79,0.00,CLR,CLR,0.00,0.0,WeatherDisplay:10.37,2013-04-19 19:49:00,
2013-04-19 14:54:00,38.8,32.8,29.67,West,261,16.0,25.0,79,0.00,CLR,CLR,0.00,0.0,WeatherDisplay:10.37,2013-04-19 19:54:00,
2013-04-19 14:59:00,38.7,32.4,29.68,WSW,254,16.0,24.0,78,0.00,CLR,CLR,0.00,0.0,WeatherDisplay:10.37,2013-04-19 19:59:00,
2013-04-19 15:04:00,38.4,32.8,29.68,WSW,248,13.0,31.0,80,0.00,CLR,CLR,0.00,0.0,WeatherDisplay:10.37,2013-04-19 20:04:00,
2013-04-19 15:09:00,38.2,32.3,29.68,WSW,251,15.0,31.0,79,0.00,CLR,CLR,0.00,0.0,WeatherDisplay:10.37,2013-04-19 20:09:00,
2013-04-19 15:14:00,38.2,32.2,29.68,WSW,255,12.0,22.0,79,0.00,CLR,CLR,0.00,0.0,WeatherDisplay:10.37,2013-04-19 20:14:00,
2013-04-19 15:19:00,38.2,32.3,29.68,WSW,258,14.0,24.0,79,0.00,CLR,CLR,0.00,0.0,WeatherDisplay:10.37,2013-04-19 20:19:00,
2013-04-19 15:24:00,38.4,32.1,29.68,West,262,14.0,24.0,78,0.00,CLR,CLR,0.00,0.0,WeatherDisplay:10.37,2013-04-19 20:24:00,
2013-04-19 15:29:00,38.7,32.4,29.68,West,262,10.0,22.0,78,0.00,CLR,CLR,0.00,0.0,WeatherDisplay:10.37,2013-04-19 20:29:00,
2013-04-19 15:34:00,38.9,33.0,29.68,West,261,10.0,22.0,79,0.00,CLR,CLR,0.00,0.0,WeatherDisplay:10.37,2013-04-19 20:34:00,
2013-04-19 15:39:00,38.9,32.6,29.68,West,262,9.0,20.0,78,0.00,CLR,CLR,0.00,0.0,WeatherDisplay:10.37,2013-04-19 20:39:00,
2013-04-19 15:44:00,38.6,32.0,29.69,West,261,14.0,24.0,77,0.00,CLR,CLR,0.00,0.0,WeatherDisplay:10.37,2013-04-19 20:44:00,
2013-04-19 15:49:00,38.7,32.7,29.69,West,262,8.0,22.0,79,0.00,CLR,CLR,0.00,0.0,WeatherDisplay:10.37,2013-04-19 20:49:00,
2013-04-19 15:54:00,38.6,32.0,29.69,West,261,14.0,30.0,77,0.00,CLR,CLR,0.00,0.0,WeatherDisplay:10.37,2013-04-19 20:54:00,
2013-04-19 15:59:00,38.4,32.1,29.69,West,261,13.0,20.0,78,0.00,CLR,CLR,0.00,0.0,WeatherDisplay:10.37,2013-04-19 20:59:00,
2013-04-19 16:04:00,38.5,32.8,29.70,WSW,256,9.0,23.0,80,0.00,CLR,CLR,0.00,0.0,WeatherDisplay:10.37,2013-04-19 21:04:00,
2013-04-19 16:09:00,38.3,33.3,29.70,WSW,252,14.0,23.0,82,0.00,CLR,CLR,0.00,0.0,WeatherDisplay:10.37,2013-04-19 21:09:00,
2013-04-19 16:14:00,38.0,33.0,29.70,WSW,252,12.0,26.0,82,0.00,CLR,CLR,0.00,0.0,WeatherDisplay:10.37,2013-04-19 21:14:00,
2013-04-19 16:19:00,38.0,32.4,29.71,West,260,10.0,22.0,80,0.00,CLR,CLR,0.00,0.0,WeatherDisplay:10.37,2013-04-19 21:19:00,
2013-04-19 16:24:00,38.0,33.0,29.71,West,263,13.0,20.0,82,0.00,CLR,CLR,0.00,0.0,WeatherDisplay:10.37,2013-04-19 21:24:00,
2013-04-19 16:29:00,38.1,32.8,29.71,West,260,9.0,18.0,81,0.00,CLR,CLR,0.00,0.0,WeatherDisplay:10.37,2013-04-19 21:29:00,
2013-04-19 16:34:00,38.1,33.1,29.71,WSW,258,9.0,17.0,82,0.00,CLR,CLR,0.00,0.0,WeatherDisplay:10.37,2013-04-19 21:34:00,
2013-04-19 16:39:00,38.1,32.7,29.72,WSW,255,12.0,20.0,81,0.00,CLR,CLR,0.00,0.0,WeatherDisplay:10.37,2013-04-19 21:39:00,
2013-04-19 16:44:00,38.0,32.7,29.72,WSW,258,9.0,17.0,81,0.00,CLR,CLR,0.00,0.0,WeatherDisplay:10.37,2013-04-19 21:44:00,
2013-04-19 16:49:00,38.0,33.0,29.72,West,262,7.0,17.0,82,0.00,CLR,CLR,0.00,0.0,WeatherDisplay:10.37,2013-04-19 21:49:00,
2013-04-19 16:54:00,38.2,32.9,29.72,West,264,8.0,14.0,81,0.00,CLR,CLR,0.00,0.0,WeatherDisplay:10.37,2013-04-19 21:54:00,
2013-04-19 16:59:00,38.3,33.0,29.72,West,261,13.0,20.0,81,0.00,CLR,CLR,0.00,0.0,WeatherDisplay:10.37,2013-04-19 21:59:00,
2013-04-19 17:04:00,38.3,33.0,29.73,WSW,253,14.0,20.0,81,0.00,CLR,CLR,0.00,0.0,WeatherDisplay:10.37,2013-04-19 22:04:00,
2013-04-19 17:09:00,38.4,32.5,29.73,WSW,253,10.0,26.0,79,0.00,CLR,CLR,0.00,0.0,WeatherDisplay:10.37,2013-04-19 22:09:00,
2013-04-19 17:14:00,38.4,32.5,29.73,WSW,258,9.0,17.0,79,0.00,CLR,CLR,0.00,0.0,WeatherDisplay:10.37,2013-04-19 22:14:00,
2013-04-19 17:19:00,38.3,32.4,29.73,WSW,255,13.0,21.0,79,0.00,CLR,CLR,0.00,0.0,WeatherDisplay:10.37,2013-04-19 22:19:00,
2013-04-19 17:24:00,38.3,32.6,29.74,WSW,255,8.0,18.0,80,0.00,CLR,CLR,0.00,0.0,WeatherDisplay:10.37,2013-04-19 22:24:00,
2013-04-19 17:29:00,38.3,32.4,29.74,WSW,256,9.0,20.0,79,0.00,CLR,CLR,0.00,0.0,WeatherDisplay:10.37,2013-04-19 22:29:00,
2013-04-19 17:34:00,38.4,32.8,29.74,West,262,10.0,17.0,80,0.00,CLR,CLR,0.00,0.0,WeatherDisplay:10.37,2013-04-19 22:34:00,
2013-04-19 17:39:00,38.6,32.3,29.75,West,264,8.0,15.0,78,0.00,CLR,CLR,0.00,0.0,WeatherDisplay:10.37,2013-04-19 22:39:00,
2013-04-19 17:44:00,38.4,32.2,29.75,West,263,9.0,15.0,78,0.00,CLR,CLR,0.00,0.0,WeatherDisplay:10.37,2013-04-19 22:44:00,
2013-04-19 17:49:00,38.1,32.2,29.75,West,264,7.0,16.0,79,0.00,CLR,CLR,0.00,0.0,WeatherDisplay:10.37,2013-04-19 22:49:00,
2013-04-19 17:54:00,37.7,32.4,29.76,West,264,9.0,15.0,81,0.00,CLR,CLR,0.00,0.0,WeatherDisplay:10.37,2013-04-19 22:54:00,
2013-04-19 17:59:00,37.4,32.7,29.76,West,263,7.0,12.0,83,0.00,CLR,CLR,0.00,0.0,WeatherDisplay:10.37,2013-04-19 22:59:00,
2013-04-19 18:04:00,37.6,32.9,29.76,West,263,8.0,12.0,83,0.00,CLR,CLR,0.00,0.0,WeatherDisplay:10.37,2013-04-19 23:04:00,
2013-04-19 18:09:00,37.9,32.9,29.76,West,262,7.0,12.0,82,0.00,CLR,CLR,0.00,0.0,WeatherDisplay:10.37,2013-04-19 23:09:00,
2013-04-19 18:14:00,38.1,32.8,29.76,West,262,7.0,14.0,81,0.00,CLR,CLR,0.00,0.0,WeatherDisplay:10.37,2013-04-19 23:14:00,
2013-04-19 18:19:00,38.3,31.4,29.76,West,263,10.0,20.0,76,0.00,CLR,CLR,0.00,0.0,WeatherDisplay:10.37,2013-04-19 23:19:00,
2013-04-19 18:29:00,38.3,32.1,29.77,West,268,8.0,14.0,78,0.00,CLR,CLR,0.00,0.0,WeatherDisplay:10.37,2013-04-19 23:29:00,
2013-04-19 18:34:00,38.3,32.0,29.77,West,264,6.0,15.0,78,0.00,CLR,CLR,0.00,0.0,WeatherDisplay:10.37,2013-04-19 23:34:00,
2013-04-19 18:39:00,38.4,32.1,29.77,West,263,8.0,14.0,78,0.00,CLR,CLR,0.00,0.0,WeatherDisplay:10.37,2013-04-19 23:39:00,
2013-04-19 18:44:00,38.5,31.3,29.77,West,266,13.0,23.0,75,0.00,CLR,CLR,0.00,0.0,WeatherDisplay:10.37,2013-04-19 23:44:00,
2013-04-19 18:49:00,38.5,31.6,29.77,West,265,9.0,15.0,76,0.00,CLR,CLR,0.00,0.0,WeatherDisplay:10.37,2013-04-19 23:49:00,
2013-04-19 18:54:00,38.5,31.9,29.78,West,266,7.0,15.0,77,0.00,CLR,CLR,0.00,0.0,WeatherDisplay:10.37,2013-04-19 23:54:00,
2013-04-19 18:59:00,38.4,32.2,29.78,West,266,8.0,23.0,78,0.00,CLR,CLR,0.00,0.0,WeatherDisplay:10.37,2013-04-19 23:59:00,
2013-04-19 19:04:00,38.4,31.8,29.78,West,267,12.0,23.0,77,0.00,CLR,CLR,0.00,0.0,WeatherDisplay:10.37,2013-04-20 00:04:00,
2013-04-19 19:09:00,38.2,31.9,29.79,West,272,10.0,21.0,78,0.00,CLR,CLR,0.00,0.0,WeatherDisplay:10.37,2013-04-20 00:09:00,
2013-04-19 19:14:00,38.2,32.2,29.79,West,274,7.0,16.0,79,0.00,CLR,CLR,0.00,0.0,WeatherDisplay:10.37,2013-04-20 00:14:00,
2013-04-19 19:19:00,38.1,32.5,29.79,West,269,10.0,17.0,80,0.00,CLR,CLR,0.00,0.0,WeatherDisplay:10.37,2013-04-20 00:19:00,
2013-04-19 19:24:00,38.0,31.8,29.79,West,270,10.0,21.0,78,0.00,CLR,CLR,0.00,0.0,WeatherDisplay:10.37,2013-04-20 00:24:00,
2013-04-19 19:29:00,37.9,32.0,29.80,West,268,8.0,15.0,79,0.00,CLR,CLR,0.00,0.0,WeatherDisplay:10.37,2013-04-20 00:29:00,
2013-04-19 19:39:00,37.8,32.5,29.80,West,270,10.0,22.0,81,0.00,CLR,CLR,0.00,0.0,WeatherDisplay:10.37,2013-04-20 00:39:00,
2013-04-19 19:49:00,37.7,32.7,29.81,West,269,12.0,17.0,82,0.00,CLR,CLR,0.00,0.0,WeatherDisplay:10.37,2013-04-20 00:49:00,
2013-04-19 19:54:00,37.5,32.8,29.81,West,266,8.0,17.0,83,0.00,CLR,CLR,0.00,0.0,WeatherDisplay:10.37,2013-04-20 00:54:00,
2013-04-19 19:59:00,37.3,32.6,29.81,West,268,10.0,17.0,83,0.00,CLR,CLR,0.00,0.0,WeatherDisplay:10.37,2013-04-20 00:59:00,
2013-04-19 20:04:00,37.3,32.3,29.82,West,268,12.0,24.0,82,0.00,CLR,CLR,0.00,0.0,WeatherDisplay:10.37,2013-04-20 01:04:00,
2013-04-19 20:09:00,37.1,31.8,29.82,West,267,10.0,24.0,81,0.00,CLR,CLR,0.00,0.0,WeatherDisplay:10.37,2013-04-20 01:09:00,
2013-04-19 20:14:00,37.0,31.7,29.82,West,268,7.0,17.0,81,0.00,CLR,CLR,0.00,0.0,WeatherDisplay:10.37,2013-04-20 01:14:00,
2013-04-19 20:19:00,36.9,31.9,29.83,West,269,7.0,12.0,82,0.00,CLR,CLR,0.00,0.0,WeatherDisplay:10.37,2013-04-20 01:19:00,
2013-04-19 20:24:00,36.8,31.9,29.83,West,276,7.0,10.0,82,0.00,CLR,CLR,0.00,0.0,WeatherDisplay:10.37,2013-04-20 01:24:00,
2013-04-19 20:29:00,37.0,32.0,29.83,West,280,8.0,13.0,82,0.00,CLR,CLR,0.00,0.0,WeatherDisplay:10.37,2013-04-20 01:29:00,
2013-04-19 20:34:00,37.1,32.4,29.83,West,272,7.0,16.0,83,0.00,CLR,CLR,0.00,0.0,WeatherDisplay:10.37,2013-04-20 01:34:00,
2013-04-19 20:39:00,37.2,32.5,29.84,West,270,8.0,16.0,83,0.00,CLR,CLR,0.00,0.0,WeatherDisplay:10.37,2013-04-20 01:39:00,
2013-04-19 20:44:00,37.2,32.8,29.84,West,275,7.0,15.0,84,0.00,CLR,CLR,0.00,0.0,WeatherDisplay:10.37,2013-04-20 01:44:00,
2013-04-19 20:49:00,37.2,32.5,29.84,West,280,7.0,16.0,83,0.00,CLR,CLR,0.00,0.0,WeatherDisplay:10.37,2013-04-20 01:49:00,
2013-04-19 20:54:00,37.2,32.5,29.85,West,276,8.0,16.0,83,0.00,CLR,CLR,0.00,0.0,WeatherDisplay:10.37,2013-04-20 01:54:00,
2013-04-19 20:59:00,37.1,32.4,29.85,West,274,8.0,17.0,83,0.00,CLR,CLR,0.00,0.0,WeatherDisplay:10.37,2013-04-20 01:59:00,
2013-04-19 21:09:00,37.0,32.3,29.85,West,271,8.0,13.0,83,0.00,CLR,CLR,0.00,0.0,WeatherDisplay:10.37,2013-04-20 02:09:00,
2013-04-19 21:14:00,37.0,32.0,29.86,West,275,8.0,13.0,82,0.00,CLR,CLR,0.00,0.0,WeatherDisplay:10.37,2013-04-20 02:14:00,
2013-04-19 21:19:00,36.9,32.2,29.86,West,274,8.0,12.0,83,0.00,CLR,CLR,0.00,0.0,WeatherDisplay:10.37,2013-04-20 02:19:00,
2013-04-19 21:29:00,36.9,32.2,29.86,West,276,7.0,10.0,83,0.00,CLR,CLR,0.00,0.0,WeatherDisplay:10.37,2013-04-20 02:29:00,
2013-04-19 21:34:00,36.9,32.5,29.87,West,278,7.0,12.0,84,0.00,CLR,CLR,0.00,0.0,WeatherDisplay:10.37,2013-04-20 02:34:00,
2013-04-19 21:39:00,36.9,32.5,29.87,West,277,6.0,13.0,84,0.00,CLR,CLR,0.00,0.0,WeatherDisplay:10.37,2013-04-20 02:39:00,
2013-04-19 21:44:00,36.9,32.8,29.87,West,276,8.0,13.0,85,0.00,CLR,CLR,0.00,0.0,WeatherDisplay:10.37,2013-04-20 02:44:00,
2013-04-19 21:54:00,36.8,32.4,29.88,West,274,7.0,16.0,84,0.00,CLR,CLR,0.00,0.0,WeatherDisplay:10.37,2013-04-20 02:54:00,
2013-04-19 21:59:00,36.8,32.7,29.88,West,278,6.0,13.0,85,0.00,CLR,CLR,0.00,0.0,WeatherDisplay:10.37,2013-04-20 02:59:00,
2013-04-19 22:04:00,36.7,32.3,29.88,West,279,6.0,10.0,84,0.00,CLR,CLR,0.00,0.0,WeatherDisplay:10.37,2013-04-20 03:04:00,
2013-04-19 22:09:00,36.7,32.3,29.88,West,279,7.0,10.0,84,0.00,CLR,CLR,0.00,0.0,WeatherDisplay:10.37,2013-04-20 03:09:00,
2013-04-19 22:14:00,36.7,32.3,29.89,West,277,7.0,13.0,84,0.00,CLR,CLR,0.00,0.0,WeatherDisplay:10.37,2013-04-20 03:14:00,
2013-04-19 22:19:00,36.7,32.0,29.89,West,280,7.0,13.0,83,0.00,CLR,CLR,0.00,0.0,WeatherDisplay:10.37,2013-04-20 03:19:00,
2013-04-19 22:24:00,36.7,32.0,29.89,WNW,283,6.0,10.0,83,0.00,CLR,CLR,0.00,0.0,WeatherDisplay:10.37,2013-04-20 03:24:00,
2013-04-19 22:29:00,36.5,32.4,29.89,West,277,5.0,8.0,85,0.00,CLR,CLR,0.00,0.0,WeatherDisplay:10.37,2013-04-20 03:29:00,
2013-04-19 22:34:00,36.5,32.1,29.89,West,280,8.0,13.0,84,0.00,CLR,CLR,0.00,0.0,WeatherDisplay:10.37,2013-04-20 03:34:00,
2013-04-19 22:39:00,36.5,32.1,29.89,WNW,283,6.0,12.0,84,0.00,CLR,CLR,0.00,0.0,WeatherDisplay:10.37,2013-04-20 03:39:00,
2013-04-19 22:44:00,36.4,32.0,29.90,West,281,6.0,8.0,84,0.00,CLR,CLR,0.00,0.0,WeatherDisplay:10.37,2013-04-20 03:44:00,
2013-04-19 22:49:00,36.4,31.7,29.89,West,277,6.0,12.0,83,0.00,CLR,CLR,0.00,0.0,WeatherDisplay:10.37,2013-04-20 03:49:00,
2013-04-19 22:54:00,36.4,32.0,29.90,West,278,7.0,10.0,84,0.00,CLR,CLR,0.00,0.0,WeatherDisplay:10.37,2013-04-20 03:54:00,
2013-04-19 22:59:00,36.4,31.4,29.90,West,278,6.0,10.0,82,0.00,CLR,CLR,0.00,0.0,WeatherDisplay:10.37,2013-04-20 03:59:00,
2013-04-19 23:04:00,36.3,31.6,29.89,West,275,9.0,16.0,83,0.00,CLR,CLR,0.00,0.0,WeatherDisplay:10.37,2013-04-20 04:04:00,
2013-04-19 23:09:00,36.3,31.3,29.90,West,276,7.0,12.0,82,0.00,CLR,CLR,0.00,0.0,WeatherDisplay:10.37,2013-04-20 04:09:00,
2013-04-19 23:14:00,36.1,31.1,29.90,West,276,8.0,12.0,82,0.00,CLR,CLR,0.00,0.0,WeatherDisplay:10.37,2013-04-20 04:14:00,
2013-04-19 23:19:00,35.9,30.9,29.90,West,274,8.0,13.0,82,0.00,CLR,CLR,0.00,0.0,WeatherDisplay:10.37,2013-04-20 04:19:00,
2013-04-19 23:24:00,35.7,31.0,29.90,West,279,7.0,13.0,83,0.00,CLR,CLR,0.00,0.0,WeatherDisplay:10.37,2013-04-20 04:24:00,
2013-04-19 23:29:00,35.5,31.1,29.91,West,279,6.0,10.0,84,0.00,CLR,CLR,0.00,0.0,WeatherDisplay:10.37,2013-04-20 04:29:00,
2013-04-19 23:34:00,35.3,31.0,29.91,West,276,6.0,13.0,84,0.00,CLR,CLR,0.00,0.0,WeatherDisplay:10.37,2013-04-20 04:34:00,
2013-04-19 23:39:00,35.2,30.9,29.91,West,280,7.0,13.0,84,0.00,CLR,CLR,0.00,0.0,WeatherDisplay:10.37,2013-04-20 04:39:00,
2013-04-19 23:44:00,35.2,30.6,29.91,WNW,282,6.0,12.0,83,0.00,CLR,CLR,0.00,0.0,WeatherDisplay:10.37,2013-04-20 04:44:00,
2013-04-19 23:49:00,35.0,30.7,29.91,West,278,6.0,12.0,84,0.00,CLR,CLR,0.00,0.0,WeatherDisplay:10.37,2013-04-20 04:49:00,
2013-04-19 23:54:00,35.0,30.4,29.91,West,279,6.0,14.0,83,0.00,CLR,CLR,0.00,0.0,WeatherDisplay:10.37,2013-04-20 04:54:00,
2013-04-19 23:59:00,34.9,30.6,29.92,West,278,6.0,13.0,84,0.00,CLR,CLR,0.00,0.0,WeatherDisplay:10.37,2013-04-20 04:59:00,